sensor_id;sensor_type;location;lat;lon;timestamp;temperature;humidity
34815;DHT22;21030;53.912;15.214;2022-12-29T00:00:19;27.80;30.60
34815;DHT22;21030;53.912;15.214;2022-12-29T00:02:46;27.40;31.10
34815;DHT22;21030;53.912;15.214;2022-12-29T00:05:13;27.30;31.00
34815;DHT22;21030;53.912;15.214;2022-12-29T00:07:40;27.40;31.30
34815;DHT22;21030;53.912;15.214;2022-12-29T00:10:08;27.80;30.70
34815;DHT22;21030;53.912;15.214;2022-12-29T00:12:35;27.90;30.60
34815;DHT22;21030;53.912;15.214;2022-12-29T00:15:21;28.20;30.10
34815;DHT22;21030;53.912;15.214;2022-12-29T00:18:03;28.00;30.20
34815;DHT22;21030;53.912;15.214;2022-12-29T00:20:34;27.90;29.80
34815;DHT22;21030;53.912;15.214;2022-12-29T00:23:20;27.90;30.00
34815;DHT22;21030;53.912;15.214;2022-12-29T00:26:14;28.20;29.70
34815;DHT22;21030;53.912;15.214;2022-12-29T00:29:01;28.20;29.40
34815;DHT22;21030;53.912;15.214;2022-12-29T00:31:47;27.70;29.50
34815;DHT22;21030;53.912;15.214;2022-12-29T00:34:32;27.60;29.80
34815;DHT22;21030;53.912;15.214;2022-12-29T00:37:18;28.00;29.80
34815;DHT22;21030;53.912;15.214;2022-12-29T00:40:05;28.30;29.90
34815;DHT22;21030;53.912;15.214;2022-12-29T00:42:51;28.30;29.60
34815;DHT22;21030;53.912;15.214;2022-12-29T00:45:40;27.80;29.20
34815;DHT22;21030;53.912;15.214;2022-12-29T00:48:07;28.00;29.40
34815;DHT22;21030;53.912;15.214;2022-12-29T00:50:34;27.90;29.60
34815;DHT22;21030;53.912;15.214;2022-12-29T00:53:01;27.90;29.70
34815;DHT22;21030;53.912;15.214;2022-12-29T00:55:28;28.10;29.40
34815;DHT22;21030;53.912;15.214;2022-12-29T00:57:55;27.40;29.70
34815;DHT22;21030;53.912;15.214;2022-12-29T01:00:22;27.50;30.00
34815;DHT22;21030;53.912;15.214;2022-12-29T01:02:49;26.60;30.60
34815;DHT22;21030;53.912;15.214;2022-12-29T01:05:16;26.40;31.30
34815;DHT22;21030;53.912;15.214;2022-12-29T01:07:44;26.10;31.40
34815;DHT22;21030;53.912;15.214;2022-12-29T01:10:11;26.30;31.20
34815;DHT22;21030;53.912;15.214;2022-12-29T01:12:39;26.60;31.30
34815;DHT22;21030;53.912;15.214;2022-12-29T01:15:12;26.50;31.10
34815;DHT22;21030;53.912;15.214;2022-12-29T01:17:41;26.40;31.40
34815;DHT22;21030;53.912;15.214;2022-12-29T01:20:08;26.30;31.60
34815;DHT22;21030;53.912;15.214;2022-12-29T01:22:38;25.40;32.70
34815;DHT22;21030;53.912;15.214;2022-12-29T01:25:06;25.70;32.60
34815;DHT22;21030;53.912;15.214;2022-12-29T01:27:33;25.30;33.30
34815;DHT22;21030;53.912;15.214;2022-12-29T01:30:01;24.90;33.40
34815;DHT22;21030;53.912;15.214;2022-12-29T01:32:28;25.00;33.60
34815;DHT22;21030;53.912;15.214;2022-12-29T01:34:55;25.10;33.60
34815;DHT22;21030;53.912;15.214;2022-12-29T01:37:22;24.80;33.60
34815;DHT22;21030;53.912;15.214;2022-12-29T01:39:49;24.30;34.40
34815;DHT22;21030;53.912;15.214;2022-12-29T01:42:19;24.90;33.90
34815;DHT22;21030;53.912;15.214;2022-12-29T01:45:03;24.30;33.80
34815;DHT22;21030;53.912;15.214;2022-12-29T01:50:26;24.30;35.00
34815;DHT22;21030;53.912;15.214;2022-12-29T01:53:23;24.10;34.80
34815;DHT22;21030;53.912;15.214;2022-12-29T01:55:55;23.90;35.50
34815;DHT22;21030;53.912;15.214;2022-12-29T01:58:28;24.40;34.90
34815;DHT22;21030;53.912;15.214;2022-12-29T02:00:56;24.60;34.60
34815;DHT22;21030;53.912;15.214;2022-12-29T02:03:25;24.00;35.10
34815;DHT22;21030;53.912;15.214;2022-12-29T02:08:28;24.70;33.80
34815;DHT22;21030;53.912;15.214;2022-12-29T02:10:59;24.10;34.50
34815;DHT22;21030;53.912;15.214;2022-12-29T02:13:28;24.80;34.50
34815;DHT22;21030;53.912;15.214;2022-12-29T02:27:34;25.20;33.50
34815;DHT22;21030;53.912;15.214;2022-12-29T02:32:58;24.70;34.20
34815;DHT22;21030;53.912;15.214;2022-12-29T02:35:44;24.90;34.10
34815;DHT22;21030;53.912;15.214;2022-12-29T02:43:44;25.20;33.90
34815;DHT22;21030;53.912;15.214;2022-12-29T02:46:37;24.80;34.10
34815;DHT22;21030;53.912;15.214;2022-12-29T02:52:02;24.70;34.50
34815;DHT22;21030;53.912;15.214;2022-12-29T02:54:31;24.80;34.90
34815;DHT22;21030;53.912;15.214;2022-12-29T03:00:01;24.40;34.30
34815;DHT22;21030;53.912;15.214;2022-12-29T03:11:08;23.70;36.40
34815;DHT22;21030;53.912;15.214;2022-12-29T03:14:02;23.50;36.90
34815;DHT22;21030;53.912;15.214;2022-12-29T03:16:52;24.40;36.40
34815;DHT22;21030;53.912;15.214;2022-12-29T03:22:04;23.00;38.00
34815;DHT22;21030;53.912;15.214;2022-12-29T03:25:15;22.50;39.30
34815;DHT22;21030;53.912;15.214;2022-12-29T03:27:45;23.50;37.60
34815;DHT22;21030;53.912;15.214;2022-12-29T03:30:13;23.50;37.40
34815;DHT22;21030;53.912;15.214;2022-12-29T03:32:48;24.10;37.20
34815;DHT22;21030;53.912;15.214;2022-12-29T03:35:21;24.70;35.50
34815;DHT22;21030;53.912;15.214;2022-12-29T03:37:58;24.70;35.50
34815;DHT22;21030;53.912;15.214;2022-12-29T03:40:27;24.10;36.80
34815;DHT22;21030;53.912;15.214;2022-12-29T03:42:56;24.10;36.30
34815;DHT22;21030;53.912;15.214;2022-12-29T03:45:25;24.60;36.20
34815;DHT22;21030;53.912;15.214;2022-12-29T03:47:53;24.40;35.50
34815;DHT22;21030;53.912;15.214;2022-12-29T03:50:20;25.10;35.10
34815;DHT22;21030;53.912;15.214;2022-12-29T03:52:47;24.50;35.00
34815;DHT22;21030;53.912;15.214;2022-12-29T03:55:15;24.20;36.20
34815;DHT22;21030;53.912;15.214;2022-12-29T03:57:44;23.30;37.40
34815;DHT22;21030;53.912;15.214;2022-12-29T04:00:12;23.70;37.70
34815;DHT22;21030;53.912;15.214;2022-12-29T04:02:39;24.40;36.10
34815;DHT22;21030;53.912;15.214;2022-12-29T04:05:07;24.70;36.00
34815;DHT22;21030;53.912;15.214;2022-12-29T04:07:34;24.40;35.70
34815;DHT22;21030;53.912;15.214;2022-12-29T04:10:01;24.10;36.20
34815;DHT22;21030;53.912;15.214;2022-12-29T04:12:29;23.60;37.30
34815;DHT22;21030;53.912;15.214;2022-12-29T04:14:56;23.80;37.40
34815;DHT22;21030;53.912;15.214;2022-12-29T04:17:23;24.20;36.50
34815;DHT22;21030;53.912;15.214;2022-12-29T04:19:51;24.20;37.00
34815;DHT22;21030;53.912;15.214;2022-12-29T04:22:18;24.30;36.30
34815;DHT22;21030;53.912;15.214;2022-12-29T04:24:45;24.60;36.10
34815;DHT22;21030;53.912;15.214;2022-12-29T04:27:12;24.70;35.80
34815;DHT22;21030;53.912;15.214;2022-12-29T04:29:40;25.10;34.90
34815;DHT22;21030;53.912;15.214;2022-12-29T04:32:07;25.90;33.80
34815;DHT22;21030;53.912;15.214;2022-12-29T04:34:34;26.00;33.40
34815;DHT22;21030;53.912;15.214;2022-12-29T04:37:01;25.10;34.30
34815;DHT22;21030;53.912;15.214;2022-12-29T04:39:28;24.70;35.10
34815;DHT22;21030;53.912;15.214;2022-12-29T04:41:55;24.60;35.20
34815;DHT22;21030;53.912;15.214;2022-12-29T04:44:22;24.30;35.80
34815;DHT22;21030;53.912;15.214;2022-12-29T04:46:49;24.20;35.80
34815;DHT22;21030;53.912;15.214;2022-12-29T04:49:16;24.50;35.80
34815;DHT22;21030;53.912;15.214;2022-12-29T04:51:44;23.80;36.20
34815;DHT22;21030;53.912;15.214;2022-12-29T04:54:11;23.40;37.50
34815;DHT22;21030;53.912;15.214;2022-12-29T04:56:38;23.60;37.40
34815;DHT22;21030;53.912;15.214;2022-12-29T04:59:05;23.40;38.10
34815;DHT22;21030;53.912;15.214;2022-12-29T05:01:33;24.50;37.00
34815;DHT22;21030;53.912;15.214;2022-12-29T05:04:00;24.60;35.30
34815;DHT22;21030;53.912;15.214;2022-12-29T05:06:27;24.70;35.40
34815;DHT22;21030;53.912;15.214;2022-12-29T05:08:54;25.00;34.60
34815;DHT22;21030;53.912;15.214;2022-12-29T05:11:22;25.10;35.40
34815;DHT22;21030;53.912;15.214;2022-12-29T05:13:49;24.80;34.90
34815;DHT22;21030;53.912;15.214;2022-12-29T05:16:16;24.20;35.90
34815;DHT22;21030;53.912;15.214;2022-12-29T05:18:44;23.90;36.50
34815;DHT22;21030;53.912;15.214;2022-12-29T05:21:11;23.80;36.90
34815;DHT22;21030;53.912;15.214;2022-12-29T05:23:38;23.60;36.60
34815;DHT22;21030;53.912;15.214;2022-12-29T05:26:05;23.80;37.00
34815;DHT22;21030;53.912;15.214;2022-12-29T05:28:33;24.00;36.70
34815;DHT22;21030;53.912;15.214;2022-12-29T05:31:00;24.60;35.50
34815;DHT22;21030;53.912;15.214;2022-12-29T05:33:27;25.40;34.30
34815;DHT22;21030;53.912;15.214;2022-12-29T05:35:54;26.30;33.60
34815;DHT22;21030;53.912;15.214;2022-12-29T05:38:22;26.20;33.30
34815;DHT22;21030;53.912;15.214;2022-12-29T05:40:49;25.80;33.00
34815;DHT22;21030;53.912;15.214;2022-12-29T05:43:16;26.50;32.90
34815;DHT22;21030;53.912;15.214;2022-12-29T05:45:44;26.10;32.20
34815;DHT22;21030;53.912;15.214;2022-12-29T05:48:17;25.60;33.10
34815;DHT22;21030;53.912;15.214;2022-12-29T05:50:48;25.50;33.80
34815;DHT22;21030;53.912;15.214;2022-12-29T05:53:16;26.10;33.00
34815;DHT22;21030;53.912;15.214;2022-12-29T05:55:46;25.90;32.70
34815;DHT22;21030;53.912;15.214;2022-12-29T05:58:16;25.70;33.00
34815;DHT22;21030;53.912;15.214;2022-12-29T06:00:43;25.50;33.30
34815;DHT22;21030;53.912;15.214;2022-12-29T06:03:11;25.50;33.40
34815;DHT22;21030;53.912;15.214;2022-12-29T06:05:38;24.90;34.20
34815;DHT22;21030;53.912;15.214;2022-12-29T06:08:06;25.30;33.90
34815;DHT22;21030;53.912;15.214;2022-12-29T06:10:33;25.00;34.30
34815;DHT22;21030;53.912;15.214;2022-12-29T06:13:00;25.30;34.30
34815;DHT22;21030;53.912;15.214;2022-12-29T06:15:27;26.00;33.60
34815;DHT22;21030;53.912;15.214;2022-12-29T06:17:55;26.10;32.70
34815;DHT22;21030;53.912;15.214;2022-12-29T06:20:22;26.00;32.70
34815;DHT22;21030;53.912;15.214;2022-12-29T06:22:49;25.90;33.00
34815;DHT22;21030;53.912;15.214;2022-12-29T06:25:16;25.70;32.80
34815;DHT22;21030;53.912;15.214;2022-12-29T06:27:43;25.50;33.00
34815;DHT22;21030;53.912;15.214;2022-12-29T06:30:11;25.10;33.50
34815;DHT22;21030;53.912;15.214;2022-12-29T06:32:39;25.20;34.10
34815;DHT22;21030;53.912;15.214;2022-12-29T06:35:07;25.90;33.00
34815;DHT22;21030;53.912;15.214;2022-12-29T06:37:37;26.20;32.80
34815;DHT22;21030;53.912;15.214;2022-12-29T06:40:05;26.00;32.20
34815;DHT22;21030;53.912;15.214;2022-12-29T06:42:33;25.60;32.70
34815;DHT22;21030;53.912;15.214;2022-12-29T06:45:00;25.30;33.10
34815;DHT22;21030;53.912;15.214;2022-12-29T06:47:28;25.60;33.20
34815;DHT22;21030;53.912;15.214;2022-12-29T06:49:56;26.40;32.40
34815;DHT22;21030;53.912;15.214;2022-12-29T06:52:23;26.40;32.40
34815;DHT22;21030;53.912;15.214;2022-12-29T06:54:51;26.50;31.60
34815;DHT22;21030;53.912;15.214;2022-12-29T06:57:18;26.80;31.50
34815;DHT22;21030;53.912;15.214;2022-12-29T06:59:46;27.00;31.10
34815;DHT22;21030;53.912;15.214;2022-12-29T07:02:13;26.70;30.60
34815;DHT22;21030;53.912;15.214;2022-12-29T07:04:46;27.30;30.70
34815;DHT22;21030;53.912;15.214;2022-12-29T07:07:13;27.80;30.00
34815;DHT22;21030;53.912;15.214;2022-12-29T07:09:42;27.80;29.70
34815;DHT22;21030;53.912;15.214;2022-12-29T07:12:09;27.60;29.80
34815;DHT22;21030;53.912;15.214;2022-12-29T07:14:37;27.50;30.10
34815;DHT22;21030;53.912;15.214;2022-12-29T07:17:09;27.40;30.10
34815;DHT22;21030;53.912;15.214;2022-12-29T07:19:36;27.60;30.50
34815;DHT22;21030;53.912;15.214;2022-12-29T07:22:04;27.60;29.70
34815;DHT22;21030;53.912;15.214;2022-12-29T07:24:32;27.60;30.00
34815;DHT22;21030;53.912;15.214;2022-12-29T07:26:59;27.30;30.00
34815;DHT22;21030;53.912;15.214;2022-12-29T07:29:27;27.40;30.10
34815;DHT22;21030;53.912;15.214;2022-12-29T07:31:54;26.10;31.10
34815;DHT22;21030;53.912;15.214;2022-12-29T07:34:21;25.30;32.60
34815;DHT22;21030;53.912;15.214;2022-12-29T07:36:49;26.30;32.20
34815;DHT22;21030;53.912;15.214;2022-12-29T07:39:16;26.60;31.40
34815;DHT22;21030;53.912;15.214;2022-12-29T07:41:43;25.70;32.50
34815;DHT22;21030;53.912;15.214;2022-12-29T07:44:11;25.30;32.90
34815;DHT22;21030;53.912;15.214;2022-12-29T07:46:38;25.30;33.00
34815;DHT22;21030;53.912;15.214;2022-12-29T07:49:22;25.40;33.10
34815;DHT22;21030;53.912;15.214;2022-12-29T07:51:50;25.50;32.90
34815;DHT22;21030;53.912;15.214;2022-12-29T07:54:17;25.60;32.40
34815;DHT22;21030;53.912;15.214;2022-12-29T07:56:47;25.60;32.50
34815;DHT22;21030;53.912;15.214;2022-12-29T07:59:14;25.60;32.70
34815;DHT22;21030;53.912;15.214;2022-12-29T08:01:41;25.70;32.50
34815;DHT22;21030;53.912;15.214;2022-12-29T08:04:09;26.10;32.90
34815;DHT22;21030;53.912;15.214;2022-12-29T08:06:36;25.80;33.20
34815;DHT22;21030;53.912;15.214;2022-12-29T08:09:04;25.30;33.00
34815;DHT22;21030;53.912;15.214;2022-12-29T08:11:43;25.60;33.40
34815;DHT22;21030;53.912;15.214;2022-12-29T08:14:11;26.00;33.00
34815;DHT22;21030;53.912;15.214;2022-12-29T08:16:38;25.90;33.00
34815;DHT22;21030;53.912;15.214;2022-12-29T08:19:05;25.90;33.40
34815;DHT22;21030;53.912;15.214;2022-12-29T08:21:32;26.10;33.30
34815;DHT22;21030;53.912;15.214;2022-12-29T08:24:00;25.30;33.70
34815;DHT22;21030;53.912;15.214;2022-12-29T08:26:27;25.50;34.00
34815;DHT22;21030;53.912;15.214;2022-12-29T08:28:54;25.20;34.50
34815;DHT22;21030;53.912;15.214;2022-12-29T08:31:23;25.00;35.10
34815;DHT22;21030;53.912;15.214;2022-12-29T08:33:50;24.70;36.10
34815;DHT22;21030;53.912;15.214;2022-12-29T08:36:17;25.20;35.30
34815;DHT22;21030;53.912;15.214;2022-12-29T08:38:44;25.90;34.20
34815;DHT22;21030;53.912;15.214;2022-12-29T08:41:12;26.30;33.40
34815;DHT22;21030;53.912;15.214;2022-12-29T08:43:39;26.40;32.70
34815;DHT22;21030;53.912;15.214;2022-12-29T08:46:06;25.40;33.50
34815;DHT22;21030;53.912;15.214;2022-12-29T08:48:35;25.80;34.10
34815;DHT22;21030;53.912;15.214;2022-12-29T08:51:02;25.60;34.00
34815;DHT22;21030;53.912;15.214;2022-12-29T08:53:29;25.10;34.80
34815;DHT22;21030;53.912;15.214;2022-12-29T08:55:58;26.20;34.70
34815;DHT22;21030;53.912;15.214;2022-12-29T08:58:31;25.80;34.10
34815;DHT22;21030;53.912;15.214;2022-12-29T09:00:58;25.90;34.40
34815;DHT22;21030;53.912;15.214;2022-12-29T09:03:26;26.20;34.20
34815;DHT22;21030;53.912;15.214;2022-12-29T09:06:14;26.00;34.10
34815;DHT22;21030;53.912;15.214;2022-12-29T09:08:42;26.40;33.20
34815;DHT22;21030;53.912;15.214;2022-12-29T09:11:12;26.20;34.10
34815;DHT22;21030;53.912;15.214;2022-12-29T09:13:40;26.60;33.50
34815;DHT22;21030;53.912;15.214;2022-12-29T09:16:07;26.70;33.00
34815;DHT22;21030;53.912;15.214;2022-12-29T09:18:35;26.50;33.10
34815;DHT22;21030;53.912;15.214;2022-12-29T09:21:04;26.20;33.50
34815;DHT22;21030;53.912;15.214;2022-12-29T09:23:32;25.90;33.90
34815;DHT22;21030;53.912;15.214;2022-12-29T09:26:00;26.00;34.10
34815;DHT22;21030;53.912;15.214;2022-12-29T09:28:28;26.60;33.10
34815;DHT22;21030;53.912;15.214;2022-12-29T09:30:56;25.90;33.50
34815;DHT22;21030;53.912;15.214;2022-12-29T09:33:24;25.30;34.90
34815;DHT22;21030;53.912;15.214;2022-12-29T09:35:54;25.90;34.40
34815;DHT22;21030;53.912;15.214;2022-12-29T09:38:22;26.50;33.90
34815;DHT22;21030;53.912;15.214;2022-12-29T09:41:14;26.30;33.50
34815;DHT22;21030;53.912;15.214;2022-12-29T09:44:03;27.00;32.90
34815;DHT22;21030;53.912;15.214;2022-12-29T09:46:53;27.40;32.30
34815;DHT22;21030;53.912;15.214;2022-12-29T09:52:05;26.20;32.30
34815;DHT22;21030;53.912;15.214;2022-12-29T09:54:55;25.60;34.20
34815;DHT22;21030;53.912;15.214;2022-12-29T09:57:44;24.60;35.70
34815;DHT22;21030;53.912;15.214;2022-12-29T10:00:27;24.70;36.00
34815;DHT22;21030;53.912;15.214;2022-12-29T10:03:00;23.90;36.70
34815;DHT22;21030;53.912;15.214;2022-12-29T10:05:59;23.70;38.00
34815;DHT22;21030;53.912;15.214;2022-12-29T10:16:51;24.10;37.60
34815;DHT22;21030;53.912;15.214;2022-12-29T10:25:19;24.40;36.80
34815;DHT22;21030;53.912;15.214;2022-12-29T10:27:49;23.90;36.80
34815;DHT22;21030;53.912;15.214;2022-12-29T10:30:17;24.40;37.00
34815;DHT22;21030;53.912;15.214;2022-12-29T10:32:54;24.00;37.10
34815;DHT22;21030;53.912;15.214;2022-12-29T10:35:25;24.00;37.30
34815;DHT22;21030;53.912;15.214;2022-12-29T10:37:59;23.30;38.70
34815;DHT22;21030;53.912;15.214;2022-12-29T10:40:48;24.40;38.20
34815;DHT22;21030;53.912;15.214;2022-12-29T10:43:45;25.10;36.10
34815;DHT22;21030;53.912;15.214;2022-12-29T10:46:17;25.30;35.60
34815;DHT22;21030;53.912;15.214;2022-12-29T10:48:45;24.90;35.60
34815;DHT22;21030;53.912;15.214;2022-12-29T10:51:30;25.50;35.20
34815;DHT22;21030;53.912;15.214;2022-12-29T10:54:15;25.40;34.80
34815;DHT22;21030;53.912;15.214;2022-12-29T10:56:51;24.40;36.00
34815;DHT22;21030;53.912;15.214;2022-12-29T10:59:24;24.80;36.60
34815;DHT22;21030;53.912;15.214;2022-12-29T11:04:31;25.10;35.60
34815;DHT22;21030;53.912;15.214;2022-12-29T11:07:01;24.90;35.80
34815;DHT22;21030;53.912;15.214;2022-12-29T11:09:29;24.40;36.90
34815;DHT22;21030;53.912;15.214;2022-12-29T11:12:31;25.40;36.40
34815;DHT22;21030;53.912;15.214;2022-12-29T11:15:07;25.20;35.80
34815;DHT22;21030;53.912;15.214;2022-12-29T11:17:46;25.50;35.50
34815;DHT22;21030;53.912;15.214;2022-12-29T11:20:37;25.50;35.50
34815;DHT22;21030;53.912;15.214;2022-12-29T11:23:22;25.60;35.40
34815;DHT22;21030;53.912;15.214;2022-12-29T11:26:07;25.10;35.50
34815;DHT22;21030;53.912;15.214;2022-12-29T11:28:35;25.40;35.50
34815;DHT22;21030;53.912;15.214;2022-12-29T11:31:04;25.50;35.80
34815;DHT22;21030;53.912;15.214;2022-12-29T11:33:34;25.90;34.90
34815;DHT22;21030;53.912;15.214;2022-12-29T11:36:22;26.20;34.60
34815;DHT22;21030;53.912;15.214;2022-12-29T11:38:54;25.20;35.80
34815;DHT22;21030;53.912;15.214;2022-12-29T11:41:26;25.90;35.20
34815;DHT22;21030;53.912;15.214;2022-12-29T11:43:56;25.30;35.80
34815;DHT22;21030;53.912;15.214;2022-12-29T11:46:34;25.30;36.30
34815;DHT22;21030;53.912;15.214;2022-12-29T11:49:03;25.00;36.10
34815;DHT22;21030;53.912;15.214;2022-12-29T11:51:45;25.70;35.90
34815;DHT22;21030;53.912;15.214;2022-12-29T11:54:23;25.60;35.30
34815;DHT22;21030;53.912;15.214;2022-12-29T11:56:52;25.50;35.30
34815;DHT22;21030;53.912;15.214;2022-12-29T12:02:00;25.20;35.80
34815;DHT22;21030;53.912;15.214;2022-12-29T12:04:35;25.20;36.20
34815;DHT22;21030;53.912;15.214;2022-12-29T12:07:22;24.70;36.30
34815;DHT22;21030;53.912;15.214;2022-12-29T12:10:00;24.90;36.80
34815;DHT22;21030;53.912;15.214;2022-12-29T12:13:06;24.70;36.90
34815;DHT22;21030;53.912;15.214;2022-12-29T12:15:36;25.00;37.10
34815;DHT22;21030;53.912;15.214;2022-12-29T12:21:38;24.70;37.00
34815;DHT22;21030;53.912;15.214;2022-12-29T12:27:10;24.80;37.80
34815;DHT22;21030;53.912;15.214;2022-12-29T12:29:47;24.90;36.90
34815;DHT22;21030;53.912;15.214;2022-12-29T12:32:23;24.40;37.70
34815;DHT22;21030;53.912;15.214;2022-12-29T12:34:51;24.80;37.00
34815;DHT22;21030;53.912;15.214;2022-12-29T12:45:48;25.70;35.30
34815;DHT22;21030;53.912;15.214;2022-12-29T12:51:18;25.40;36.00
34815;DHT22;21030;53.912;15.214;2022-12-29T12:56:59;26.50;34.70
34815;DHT22;21030;53.912;15.214;2022-12-29T13:08:36;26.80;34.80
34815;DHT22;21030;53.912;15.214;2022-12-29T13:11:29;27.20;33.40
34815;DHT22;21030;53.912;15.214;2022-12-29T13:20:11;27.20;33.30
34815;DHT22;21030;53.912;15.214;2022-12-29T13:25:47;27.70;33.00
34815;DHT22;21030;53.912;15.214;2022-12-29T13:34:05;26.90;33.10
34815;DHT22;21030;53.912;15.214;2022-12-29T13:36:46;27.40;32.70
34815;DHT22;21030;53.912;15.214;2022-12-29T13:39:42;27.30;32.70
34815;DHT22;21030;53.912;15.214;2022-12-29T13:42:09;27.00;32.30
34815;DHT22;21030;53.912;15.214;2022-12-29T13:45:02;26.90;32.00
34815;DHT22;21030;53.912;15.214;2022-12-29T13:47:53;27.30;31.40
34815;DHT22;21030;53.912;15.214;2022-12-29T13:50:25;28.00;30.30
34815;DHT22;21030;53.912;15.214;2022-12-29T13:56:05;28.10;29.80
34815;DHT22;21030;53.912;15.214;2022-12-29T13:59:03;28.00;29.70
34815;DHT22;21030;53.912;15.214;2022-12-29T14:01:46;28.60;29.40
34815;DHT22;21030;53.912;15.214;2022-12-29T14:04:28;28.40;29.00
34815;DHT22;21030;53.912;15.214;2022-12-29T14:07:21;28.00;28.80
34815;DHT22;21030;53.912;15.214;2022-12-29T14:09:50;27.50;29.30
34815;DHT22;21030;53.912;15.214;2022-12-29T14:12:37;27.20;29.60
34815;DHT22;21030;53.912;15.214;2022-12-29T14:17:40;28.30;29.30
34815;DHT22;21030;53.912;15.214;2022-12-29T14:20:21;29.70;28.40
34815;DHT22;21030;53.912;15.214;2022-12-29T14:23:24;29.30;27.60
34815;DHT22;21030;53.912;15.214;2022-12-29T14:28:28;29.30;28.00
34815;DHT22;21030;53.912;15.214;2022-12-29T14:31:02;29.50;27.50
34815;DHT22;21030;53.912;15.214;2022-12-29T14:33:32;29.20;27.30
34815;DHT22;21030;53.912;15.214;2022-12-29T14:36:26;29.00;27.90
34815;DHT22;21030;53.912;15.214;2022-12-29T14:39:00;28.50;28.10
34815;DHT22;21030;53.912;15.214;2022-12-29T14:41:32;28.50;28.40
34815;DHT22;21030;53.912;15.214;2022-12-29T14:44:08;28.30;28.40
34815;DHT22;21030;53.912;15.214;2022-12-29T14:46:54;28.70;28.50
34815;DHT22;21030;53.912;15.214;2022-12-29T14:49:30;28.30;28.30
34815;DHT22;21030;53.912;15.214;2022-12-29T14:52:28;27.40;29.00
34815;DHT22;21030;53.912;15.214;2022-12-29T14:58:03;27.20;30.00
34815;DHT22;21030;53.912;15.214;2022-12-29T15:00:39;28.50;29.50
34815;DHT22;21030;53.912;15.214;2022-12-29T15:03:20;29.10;28.90
34815;DHT22;21030;53.912;15.214;2022-12-29T15:05:51;28.80;28.90
34815;DHT22;21030;53.912;15.214;2022-12-29T15:08:28;29.30;29.10
34815;DHT22;21030;53.912;15.214;2022-12-29T15:11:21;29.40;29.00
34815;DHT22;21030;53.912;15.214;2022-12-29T15:13:49;30.00;28.60
34815;DHT22;21030;53.912;15.214;2022-12-29T15:16:29;30.30;28.50
34815;DHT22;21030;53.912;15.214;2022-12-29T15:18:56;29.80;28.50
34815;DHT22;21030;53.912;15.214;2022-12-29T15:21:36;29.10;29.20
34815;DHT22;21030;53.912;15.214;2022-12-29T15:24:04;28.70;29.90
34815;DHT22;21030;53.912;15.214;2022-12-29T15:26:39;27.60;31.00
34815;DHT22;21030;53.912;15.214;2022-12-29T15:29:37;26.90;32.20
34815;DHT22;21030;53.912;15.214;2022-12-29T15:32:22;27.50;32.10
34815;DHT22;21030;53.912;15.214;2022-12-29T15:34:56;27.10;32.60
34815;DHT22;21030;53.912;15.214;2022-12-29T15:37:33;27.00;32.80
34815;DHT22;21030;53.912;15.214;2022-12-29T15:40:00;27.40;32.70
34815;DHT22;21030;53.912;15.214;2022-12-29T15:45:06;28.00;32.30
34815;DHT22;21030;53.912;15.214;2022-12-29T15:47:38;28.40;31.30
34815;DHT22;21030;53.912;15.214;2022-12-29T15:52:40;28.90;30.30
34815;DHT22;21030;53.912;15.214;2022-12-29T15:55:19;28.70;30.70
34815;DHT22;21030;53.912;15.214;2022-12-29T15:57:46;28.10;31.20
34815;DHT22;21030;53.912;15.214;2022-12-29T16:00:27;27.70;32.00
34815;DHT22;21030;53.912;15.214;2022-12-29T16:02:56;26.90;33.00
34815;DHT22;21030;53.912;15.214;2022-12-29T16:05:24;26.70;33.10
34815;DHT22;21030;53.912;15.214;2022-12-29T16:07:56;25.80;34.40
34815;DHT22;21030;53.912;15.214;2022-12-29T16:15:47;24.70;36.20
34815;DHT22;21030;53.912;15.214;2022-12-29T16:18:28;24.60;36.30
34815;DHT22;21030;53.912;15.214;2022-12-29T16:20:56;24.50;36.20
34815;DHT22;21030;53.912;15.214;2022-12-29T16:23:28;24.30;36.60
34815;DHT22;21030;53.912;15.214;2022-12-29T16:25:56;24.70;36.10
34815;DHT22;21030;53.912;15.214;2022-12-29T16:28:40;24.30;36.20
34815;DHT22;21030;53.912;15.214;2022-12-29T16:31:21;24.70;36.00
34815;DHT22;21030;53.912;15.214;2022-12-29T16:33:53;25.00;35.50
34815;DHT22;21030;53.912;15.214;2022-12-29T16:36:29;24.80;35.30
34815;DHT22;21030;53.912;15.214;2022-12-29T16:41:38;25.30;34.70
34815;DHT22;21030;53.912;15.214;2022-12-29T16:44:16;24.50;35.50
34815;DHT22;21030;53.912;15.214;2022-12-29T16:49:25;24.30;36.20
34815;DHT22;21030;53.912;15.214;2022-12-29T16:51:53;24.00;36.30
34815;DHT22;21030;53.912;15.214;2022-12-29T16:54:32;24.40;36.10
34815;DHT22;21030;53.912;15.214;2022-12-29T16:57:01;24.50;36.00
34815;DHT22;21030;53.912;15.214;2022-12-29T16:59:35;25.10;35.10
34815;DHT22;21030;53.912;15.214;2022-12-29T17:02:12;25.20;34.70
34815;DHT22;21030;53.912;15.214;2022-12-29T17:04:41;25.20;34.50
34815;DHT22;21030;53.912;15.214;2022-12-29T17:07:16;25.40;34.20
34815;DHT22;21030;53.912;15.214;2022-12-29T17:09:44;24.70;35.20
34815;DHT22;21030;53.912;15.214;2022-12-29T17:12:16;24.00;37.20
34815;DHT22;21030;53.912;15.214;2022-12-29T17:14:47;23.90;37.20
34815;DHT22;21030;53.912;15.214;2022-12-29T17:17:20;24.50;37.10
34815;DHT22;21030;53.912;15.214;2022-12-29T17:19:53;24.40;36.30
34815;DHT22;21030;53.912;15.214;2022-12-29T17:22:24;24.30;36.80
34815;DHT22;21030;53.912;15.214;2022-12-29T17:24:59;24.70;36.70
34815;DHT22;21030;53.912;15.214;2022-12-29T17:27:36;25.30;35.80
34815;DHT22;21030;53.912;15.214;2022-12-29T17:30:13;25.80;34.70
34815;DHT22;21030;53.912;15.214;2022-12-29T17:32:43;26.30;34.00
34815;DHT22;21030;53.912;15.214;2022-12-29T17:35:14;26.20;33.70
34815;DHT22;21030;53.912;15.214;2022-12-29T17:37:42;26.20;33.90
34815;DHT22;21030;53.912;15.214;2022-12-29T17:40:21;25.90;33.80
34815;DHT22;21030;53.912;15.214;2022-12-29T17:42:53;25.40;34.90
34815;DHT22;21030;53.912;15.214;2022-12-29T17:45:31;25.40;35.00
34815;DHT22;21030;53.912;15.214;2022-12-29T17:47:59;25.10;35.30
34815;DHT22;21030;53.912;15.214;2022-12-29T17:50:29;25.70;34.70
34815;DHT22;21030;53.912;15.214;2022-12-29T17:53:04;25.50;35.10
34815;DHT22;21030;53.912;15.214;2022-12-29T17:55:33;24.90;35.30
34815;DHT22;21030;53.912;15.214;2022-12-29T17:58:25;24.90;35.80
34815;DHT22;21030;53.912;15.214;2022-12-29T18:00:55;25.10;35.40
34815;DHT22;21030;53.912;15.214;2022-12-29T18:03:36;24.70;36.10
34815;DHT22;21030;53.912;15.214;2022-12-29T18:06:05;24.70;36.10